地図

経路データ

SID SEASON NUMBER BASIN SUBBASIN NAME ISO_TIME NATURE LAT LON WMO_WIND WMO_PRES WMO_AGENCY TRACK_TYPE DIST2LAND LANDFALL IFLAG USA_AGENCY USA_ATCF_ID USA_LAT USA_LON USA_RECORD USA_STATUS USA_WIND USA_PRES USA_SSHS USA_R34_NE USA_R34_SE USA_R34_SW USA_R34_NW USA_R50_NE USA_R50_SE USA_R50_SW USA_R50_NW USA_R64_NE USA_R64_SE USA_R64_SW USA_R64_NW USA_POCI USA_ROCI USA_RMW USA_EYE TOKYO_LAT TOKYO_LON TOKYO_GRADE TOKYO_WIND TOKYO_PRES TOKYO_R50_DIR TOKYO_R50_LONG TOKYO_R50_SHORT TOKYO_R30_DIR TOKYO_R30_LONG TOKYO_R30_SHORT TOKYO_LAND CMA_LAT CMA_LON CMA_CAT CMA_WIND CMA_PRES HKO_LAT HKO_LON HKO_CAT HKO_WIND HKO_PRES NEWDELHI_LAT NEWDELHI_LON NEWDELHI_GRADE NEWDELHI_WIND NEWDELHI_PRES NEWDELHI_CI NEWDELHI_DP NEWDELHI_POCI REUNION_LAT REUNION_LON REUNION_TYPE REUNION_WIND REUNION_PRES REUNION_TNUM REUNION_CI REUNION_RMW REUNION_R34_NE REUNION_R34_SE REUNION_R34_SW REUNION_R34_NW REUNION_R50_NE REUNION_R50_SE REUNION_R50_SW REUNION_R50_NW REUNION_R64_NE REUNION_R64_SE REUNION_R64_SW REUNION_R64_NW BOM_LAT BOM_LON BOM_TYPE BOM_WIND BOM_PRES BOM_TNUM BOM_CI BOM_RMW BOM_R34_NE BOM_R34_SE BOM_R34_SW BOM_R34_NW BOM_R50_NE BOM_R50_SE BOM_R50_SW BOM_R50_NW BOM_R64_NE BOM_R64_SE BOM_R64_SW BOM_R64_NW BOM_ROCI BOM_POCI BOM_EYE BOM_POS_METHOD BOM_PRES_METHOD NADI_LAT NADI_LON NADI_CAT NADI_WIND NADI_PRES WELLINGTON_LAT WELLINGTON_LON WELLINGTON_WIND WELLINGTON_PRES DS824_LAT DS824_LON DS824_STAGE DS824_WIND DS824_PRES TD9636_LAT TD9636_LON TD9636_STAGE TD9636_WIND TD9636_PRES TD9635_LAT TD9635_LON TD9635_WIND TD9635_PRES TD9635_ROCI NEUMANN_LAT NEUMANN_LON NEUMANN_CLASS NEUMANN_WIND NEUMANN_PRES MLC_LAT MLC_LON MLC_CLASS MLC_WIND MLC_PRES USA_GUST BOM_GUST BOM_GUST_PER REUNION_GUST REUNION_GUST_PER USA_SEAHGT USA_SEARAD_NE USA_SEARAD_SE USA_SEARAD_SW USA_SEARAD_NW STORM_SPEED STORM_DIR
1954215N16115 1954 39 WP MM NOT_NAMED 1954-08-03 00:00:00 TS 15.8000 114.500 main 541 527 __O___________ -1 15.8000 114.500 0 998 7 16
1954215N16115 1954 39 WP MM NOT_NAMED 1954-08-03 03:00:00 TS 16.1450 114.600 main 529 514 __P___________ -1 16.1450 114.600 0 998 7 15
1954215N16115 1954 39 WP MM NOT_NAMED 1954-08-03 06:00:00 TS 16.5000 114.700 main 514 503 __O___________ -1 16.5000 114.700 0 998 8 15
1954215N16115 1954 39 WP MM NOT_NAMED 1954-08-03 09:00:00 TS 16.8650 114.800 main 502 491 __P___________ -1 16.8650 114.800 0 997 7 15
1954215N16115 1954 39 WP MM NOT_NAMED 1954-08-03 12:00:00 TS 17.2000 114.900 main 491 485 __O___________ -1 17.2000 114.900 0 997 6 18
1954215N16115 1954 39 WP MM NOT_NAMED 1954-08-03 15:00:00 TS 17.4575 115.000 main 482 477 __P___________ -1 17.4575 115.000 0 997 5 21
1954215N16115 1954 39 WP MM NOT_NAMED 1954-08-03 18:00:00 TS 17.7000 115.100 main 481 476 __O___________ -1 17.7000 115.100 0 998 6 20
1954215N16115 1954 39 WP MM NOT_NAMED 1954-08-03 21:00:00 TS 17.9925 115.207 main 476 459 __P___________ -1 17.9925 115.207 0 998 6 18
1954215N16115 1954 39 WP MM NOT_NAMED 1954-08-04 00:00:00 TS 18.3000 115.300 main 459 429 __O___________ -1 18.3000 115.300 0 999 6 15
1954215N16115 1954 39 WP MM NOT_NAMED 1954-08-04 03:00:00 TS 18.6000 115.380 main 429 397 __P___________ -1 18.6000 115.380 0 998 6 9
1954215N16115 1954 39 WP MM NOT_NAMED 1954-08-04 06:00:00 TS 18.9000 115.400 main 397 361 __O___________ -1 18.9000 115.400 0 998 6 356
1954215N16115 1954 39 WP MM NOT_NAMED 1954-08-04 09:00:00 TS 19.2075 115.330 main 361 326 __P___________ -1 19.2075 115.330 0 997 6 342
1954215N16115 1954 39 WP MM NOT_NAMED 1954-08-04 12:00:00 TS 19.5000 115.200 main 326 302 __O___________ -1 19.5000 115.200 1 29 996 6 336
1954215N16115 1954 39 WP MM NOT_NAMED 1954-08-04 15:00:00 TS 19.7575 115.072 main 291 264 __P___________ -1 19.7575 115.072 1 29 996 6 330
1954215N16115 1954 39 WP MM NOT_NAMED 1954-08-04 18:00:00 TS 20.0000 114.900 main 264 238 __O___________ -1 20.0000 114.900 1 29 996 6 323
1954215N16115 1954 39 WP MM NOT_NAMED 1954-08-04 21:00:00 TS 20.2424 114.680 main 238 201 __P___________ -1 20.2424 114.680 1 33 995 7 317
1954215N16115 1954 39 WP MM NOT_NAMED 1954-08-05 00:00:00 TS 20.5000 114.400 main 201 167 __O___________ -1 20.5000 114.400 2 38 995 8 314
1954215N16115 1954 39 WP MM NOT_NAMED 1954-08-05 03:00:00 TS 20.7924 114.080 main 167 115 __P___________ -1 20.7924 114.080 2 38 994 9 312
1954215N16115 1954 39 WP MM NOT_NAMED 1954-08-05 06:00:00 TS 21.1000 113.700 main 115 63 __O___________ -1 21.1000 113.700 2 38 993 10 309
1954215N16115 1954 39 WP MM NOT_NAMED 1954-08-05 09:00:00 TS 21.3848 113.287 main 63 22 __P___________ -1 21.3848 113.287 2 33 994 10 306
1954215N16115 1954 39 WP MM NOT_NAMED 1954-08-05 12:00:00 TS 21.7000 112.800 main 23 0 __O___________ -1 21.7000 112.800 1 29 995 12 306
1954215N16115 1954 39 WP MM NOT_NAMED 1954-08-05 15:00:00 TS 22.1077 112.208 main 0 0 __P___________ -1 22.1077 112.208 1 24 995 14 306
1954215N16115 1954 39 WP MM NOT_NAMED 1954-08-05 18:00:00 TS 22.5000 111.600 main 0 0 __O___________ -1 22.5000 111.600 0 19 996 12 301
1954215N16115 1954 39 WP MM NOT_NAMED 1954-08-05 21:00:00 TS 22.7347 111.084 main 0 0 __P___________ -1 22.7347 111.084 0 18 996 11 298
1954215N16115 1954 39 WP MM NOT_NAMED 1954-08-06 00:00:00 TS 23.0000 110.600 main 0 0 __O___________ -1 23.0000 110.600 0 17 996 11 310
1954215N16115 1954 39 WP MM NOT_NAMED 1954-08-06 03:00:00 TS 23.4620 110.130 main 0 0 __P___________ -1 23.4620 110.130 0 17 996 14 317
1954215N16115 1954 39 WP MM NOT_NAMED 1954-08-06 06:00:00 TS 24.0000 109.600 main 0 0 __O___________ -1 24.0000 109.600 0 17 996 15 311
1954215N16115 1954 39 WP MM NOT_NAMED 1954-08-06 09:00:00 TS 24.4632 108.870 main 0 0 __P___________ -1 24.4632 108.870 0 17 997 16 308
1954215N16115 1954 39 WP MM NOT_NAMED 1954-08-06 12:00:00 TS 25.0000 108.200 main 0 0 __O___________ -1 25.0000 108.200 0 17 998 16 322
1954215N16115 1954 39 WP MM NOT_NAMED 1954-08-06 15:00:00 TS 25.6995 107.810 main 0 0 __P___________ -1 25.6995 107.810 0 17 998 16 340
1954215N16115 1954 39 WP MM NOT_NAMED 1954-08-06 18:00:00 TS 26.5000 107.600 main 0 __O___________ -1 26.5000 107.600 0 17 998 17 347

デジタル台風データ・検索

IBTrACS Databaseについて

本データベースは、米国NOAAが公開する1842年以降の世界の熱帯低気圧のベストトラックデータアーカイブInternational Best Track Archive for Climate Stewardship (IBTrACS)を、ウェブで閲覧しやすい形式に変換したものです。

最終更新日:2021-10-27